createdAt,value
2023-06-04T00:01:35.768Z,102349.91
2023-06-04T00:04:02.442Z,102359.81
2023-06-04T00:06:29.186Z,102366.28
2023-06-04T00:08:56.116Z,102357.16
2023-06-04T00:11:22.856Z,102365.03
2023-06-04T00:13:49.829Z,102343.13
2023-06-04T00:16:16.723Z,102358.25
2023-06-04T00:18:43.416Z,102361.41
2023-06-04T00:21:10.035Z,102349.94
2023-06-04T00:23:37.264Z,102329.75
2023-06-04T00:26:04.397Z,102370.56
2023-06-04T00:28:31.049Z,102275.31
2023-06-04T00:30:57.808Z,102358.75
2023-06-04T00:33:24.505Z,102361.41
2023-06-04T00:35:51.151Z,102363.97
2023-06-04T00:38:18.181Z,102366.63
2023-06-04T00:40:45.567Z,102368.34
2023-06-04T00:43:12.205Z,102369.00
2023-06-04T00:45:39.055Z,102354.63
2023-06-04T00:48:07.091Z,102372.81
2023-06-04T00:50:34.302Z,102367.38
2023-06-04T00:53:01.602Z,102346.84
2023-06-04T00:55:28.810Z,102311.66
2023-06-04T00:57:55.465Z,102299.53
2023-06-04T01:00:23.657Z,102349.84
2023-06-04T01:02:54.748Z,102359.94
2023-06-04T01:05:32.975Z,102373.13
2023-06-04T01:08:01.285Z,102361.41
2023-06-04T01:10:27.909Z,102374.69
2023-06-04T01:12:54.805Z,102343.88
2023-06-04T01:15:21.481Z,102365.44
2023-06-04T01:17:52.731Z,102375.88
2023-06-04T01:20:43.091Z,102376.63
2023-06-04T01:23:16.301Z,102383.75
2023-06-04T01:25:45.300Z,102382.06
2023-06-04T01:28:13.966Z,102379.50
2023-06-04T01:30:46.849Z,102389.28
2023-06-04T01:33:18.792Z,102380.53
2023-06-04T01:35:45.597Z,102361.94
2023-06-04T01:38:12.563Z,102384.19
2023-06-04T01:40:39.277Z,102355.22
2023-06-04T01:43:06.096Z,102366.31
2023-06-04T01:45:32.999Z,102366.31
2023-06-04T01:48:05.862Z,102371.63
2023-06-04T01:50:33.063Z,102346.41
2023-06-04T01:53:00.665Z,102348.41
2023-06-04T01:55:29.246Z,102335.09
2023-06-04T01:57:55.997Z,102372.81
2023-06-04T02:00:23.544Z,102358.50
2023-06-04T02:02:50.315Z,102363.69
2023-06-04T02:05:17.310Z,102336.56
2023-06-04T02:07:46.098Z,102361.34
2023-06-04T02:10:18.038Z,102369.53
2023-06-04T02:13:14.426Z,102366.22
2023-06-04T02:15:41.600Z,102352.41
2023-06-04T02:18:18.340Z,102373.06
2023-06-04T02:20:46.435Z,102340.72
2023-06-04T02:23:14.415Z,102366.03
2023-06-04T02:25:41.319Z,102374.75
2023-06-04T02:28:09.273Z,102360.91
2023-06-04T02:30:35.949Z,102362.09
2023-06-04T02:33:02.726Z,102355.19
2023-06-04T02:35:29.878Z,102355.50
2023-06-04T02:37:59.239Z,102364.94
2023-06-04T02:40:26.809Z,102369.13
2023-06-04T02:42:54.483Z,102327.50
2023-06-04T02:45:21.466Z,102346.44
2023-06-04T02:47:48.655Z,102333.75
2023-06-04T02:50:19.385Z,102365.34
2023-06-04T02:52:45.886Z,102365.34
2023-06-04T02:55:16.085Z,102370.91
2023-06-04T02:57:43.827Z,102356.19
2023-06-04T03:00:13.743Z,102341.94
2023-06-04T03:02:42.259Z,102364.28
2023-06-04T03:05:11.911Z,102360.88
2023-06-04T03:07:38.861Z,102365.97
2023-06-04T03:10:06.206Z,102362.59
2023-06-04T03:12:33.060Z,102360.97
2023-06-04T03:14:59.724Z,102362.78
2023-06-04T03:17:27.298Z,102345.56
2023-06-04T03:19:54.132Z,102318.41
2023-06-04T03:22:21.397Z,102363.72
2023-06-04T03:24:48.248Z,102355.84
2023-06-04T03:27:15.040Z,102356.16
2023-06-04T03:29:41.702Z,102359.38
2023-06-04T03:32:08.954Z,102374.91
2023-06-04T03:34:35.978Z,102362.78
2023-06-04T03:37:02.928Z,102364.28
2023-06-04T03:39:29.704Z,102359.16
2023-06-04T03:41:56.593Z,102361.41
2023-06-04T03:44:23.889Z,102361.09
2023-06-04T03:46:50.933Z,102341.97
2023-06-04T03:49:18.440Z,102351.22
2023-06-04T03:51:45.340Z,102358.69
2023-06-04T03:54:13.000Z,102346.47
2023-06-04T03:56:40.556Z,102345.41
2023-06-04T03:59:07.258Z,102363.91
2023-06-04T04:01:34.643Z,102349.78
2023-06-04T04:04:01.873Z,102370.31
2023-06-04T04:06:28.592Z,102312.06
2023-06-04T04:08:55.313Z,102355.69
2023-06-04T04:11:22.899Z,102355.59
2023-06-04T04:13:49.524Z,102343.16
2023-06-04T04:16:16.324Z,102357.22
2023-06-04T04:18:47.500Z,102369.88
2023-06-04T04:21:14.417Z,102317.72
2023-06-04T04:23:41.808Z,102370.88
2023-06-04T04:26:09.523Z,102366.59
2023-06-04T04:28:36.358Z,102359.34
2023-06-04T04:31:03.754Z,102372.25
2023-06-04T04:33:33.578Z,102368.75
2023-06-04T04:36:00.902Z,102379.22
2023-06-04T04:38:29.663Z,102363.59
2023-06-04T04:40:56.647Z,102335.59
2023-06-04T04:43:36.237Z,102375.31
2023-06-04T04:46:03.014Z,102378.75
2023-06-04T04:48:29.644Z,102377.34
2023-06-04T04:50:56.547Z,102348.25
2023-06-04T04:53:23.537Z,102356.22
2023-06-04T04:55:50.366Z,102361.16
2023-06-04T04:58:17.100Z,102359.75
2023-06-04T05:00:43.960Z,102368.25
2023-06-04T05:03:10.812Z,102376.78
2023-06-04T05:05:37.702Z,102357.75
2023-06-04T05:08:04.689Z,102348.13
2023-06-04T05:10:31.792Z,102342.56
2023-06-04T05:13:00.651Z,102341.88
2023-06-04T05:15:27.986Z,102355.69
2023-06-04T05:17:55.156Z,102363.47
2023-06-04T05:20:22.620Z,102335.63
2023-06-04T05:22:49.687Z,102357.22
2023-06-04T05:25:18.055Z,102356.72
2023-06-04T05:27:44.982Z,102335.16
2023-06-04T05:30:12.378Z,102361.13
2023-06-04T05:32:42.080Z,102335.84
2023-06-04T05:35:09.905Z,102364.47
2023-06-04T05:37:39.089Z,102367.13
2023-06-04T05:40:06.977Z,102363.28
2023-06-04T05:42:34.278Z,102369.31
2023-06-04T05:45:01.101Z,102338.50
2023-06-04T05:47:32.598Z,102336.44
2023-06-04T05:49:59.663Z,102358.50
2023-06-04T05:52:26.452Z,102358.03
2023-06-04T05:54:53.073Z,102373.75
2023-06-04T05:57:20.014Z,102372.50
2023-06-04T05:59:46.935Z,102383.34
2023-06-04T06:02:14.260Z,102377.63
2023-06-04T06:04:41.267Z,102376.75
2023-06-04T06:07:08.790Z,102373.88
2023-06-04T06:09:36.728Z,102368.84
2023-06-04T06:12:03.859Z,102381.09
2023-06-04T06:14:31.051Z,102375.06
2023-06-04T06:16:57.707Z,102367.47
2023-06-04T06:19:24.421Z,102384.91
2023-06-04T06:21:51.502Z,102379.22
2023-06-04T06:24:18.168Z,102354.47
2023-06-04T06:26:45.034Z,102373.31
2023-06-04T06:29:11.933Z,102379.81
2023-06-04T06:31:38.735Z,102380.72
2023-06-04T06:34:05.631Z,102360.00
2023-06-04T06:36:33.909Z,102372.69
2023-06-04T06:39:00.983Z,102390.41
2023-06-04T06:41:27.778Z,102385.09
2023-06-04T06:43:54.540Z,102398.06
2023-06-04T06:46:21.347Z,102380.75
2023-06-04T06:48:49.561Z,102394.28
2023-06-04T06:51:16.625Z,102380.94
2023-06-04T06:53:43.464Z,102387.03
2023-06-04T06:56:10.228Z,102399.03
2023-06-04T06:58:37.362Z,102358.28
2023-06-04T07:01:04.179Z,102387.38
2023-06-04T07:03:31.437Z,102409.47
2023-06-04T07:05:58.491Z,102403.56
2023-06-04T07:08:25.086Z,102395.84
2023-06-04T07:10:51.842Z,102369.88
2023-06-04T07:13:18.653Z,102411.41
2023-06-04T07:15:45.472Z,102401.75
2023-06-04T07:18:12.310Z,102401.72
2023-06-04T07:20:39.097Z,102395.84
2023-06-04T07:23:06.012Z,102395.44
2023-06-04T07:25:32.623Z,102403.41
2023-06-04T07:27:59.523Z,102399.84
2023-06-04T07:30:29.177Z,102400.84
2023-06-04T07:32:55.920Z,102397.22
2023-06-04T07:35:22.672Z,102407.78
2023-06-04T07:37:50.489Z,102394.88
2023-06-04T07:40:18.126Z,102408.84
2023-06-04T07:42:46.785Z,102403.44
2023-06-04T07:45:13.470Z,102394.38
2023-06-04T07:47:40.350Z,102398.16
2023-06-04T07:50:07.883Z,102384.63
2023-06-04T07:52:34.851Z,102412.03
2023-06-04T07:55:02.151Z,102396.31
2023-06-04T07:57:28.891Z,102397.41
2023-06-04T07:59:55.547Z,102409.66
2023-06-04T08:02:22.455Z,102416.06
2023-06-04T08:04:49.525Z,102404.28
2023-06-04T08:07:16.233Z,102382.28
2023-06-04T08:09:45.146Z,102399.47
2023-06-04T08:12:11.884Z,102387.63
2023-06-04T08:14:38.588Z,102394.59
2023-06-04T08:17:05.515Z,102401.25
2023-06-04T08:19:32.189Z,102408.91
2023-06-04T08:21:58.849Z,102398.09
2023-06-04T08:24:25.799Z,102369.31
2023-06-04T08:26:52.875Z,102406.50
2023-06-04T08:29:19.966Z,102417.00
2023-06-04T08:31:46.938Z,102411.19
2023-06-04T08:34:13.650Z,102398.38
2023-06-04T08:36:40.283Z,102421.16
2023-06-04T08:39:07.049Z,102397.03
2023-06-04T08:41:52.898Z,102427.16
2023-06-04T08:44:19.759Z,102422.00
2023-06-04T08:46:52.090Z,102399.44
2023-06-04T08:49:22.364Z,102414.56
2023-06-04T08:51:50.126Z,102430.72
2023-06-04T08:54:16.777Z,102413.94
2023-06-04T08:56:45.379Z,102394.50
2023-06-04T08:59:12.371Z,102414.56
2023-06-04T09:01:39.435Z,102419.16
2023-06-04T09:04:10.054Z,102402.53
2023-06-04T09:06:40.916Z,102416.81
2023-06-04T09:09:10.991Z,102415.84
2023-06-04T09:11:43.370Z,102423.25
2023-06-04T09:14:12.842Z,102402.50
2023-06-04T09:16:50.602Z,102431.44
2023-06-04T09:19:19.076Z,102420.25
2023-06-04T09:21:56.716Z,102424.25
2023-06-04T09:24:42.094Z,102419.84
2023-06-04T09:27:14.127Z,102403.69
2023-06-04T09:29:41.865Z,102422.22
2023-06-04T09:32:08.617Z,102419.25
2023-06-04T09:34:35.711Z,102428.06
2023-06-04T09:37:02.398Z,102411.88
2023-06-04T09:39:29.725Z,102399.34
2023-06-04T09:42:01.448Z,102411.09
2023-06-04T09:44:29.795Z,102421.78
2023-06-04T09:46:57.815Z,102435.47
2023-06-04T09:49:24.980Z,102434.34
2023-06-04T09:51:52.404Z,102431.78
2023-06-04T09:54:19.690Z,102436.78
2023-06-04T09:56:46.540Z,102419.88
2023-06-04T09:59:14.445Z,102422.25
2023-06-04T10:01:42.743Z,102435.72
2023-06-04T10:04:12.966Z,102436.97
2023-06-04T10:06:40.676Z,102434.34
2023-06-04T10:09:11.300Z,102435.19
2023-06-04T10:11:53.766Z,102421.75
2023-06-04T10:14:24.576Z,102426.13
2023-06-04T10:16:52.578Z,102429.03
2023-06-04T10:19:20.379Z,102428.25
2023-06-04T10:21:47.696Z,102435.72
2023-06-04T10:24:15.678Z,102442.09
2023-06-04T10:26:43.656Z,102232.47
2023-06-04T10:29:12.489Z,102441.41
2023-06-04T10:31:39.537Z,102445.31
2023-06-04T10:34:06.341Z,102417.13
2023-06-04T10:36:46.926Z,102433.69
2023-06-04T10:39:14.137Z,102444.78
2023-06-04T10:41:40.956Z,102423.44
2023-06-04T10:44:07.973Z,102410.81
2023-06-04T10:46:42.526Z,102433.38
2023-06-04T10:49:12.872Z,102444.91
2023-06-04T10:51:39.772Z,102448.81
2023-06-04T10:54:06.593Z,102439.19
2023-06-04T10:56:39.284Z,102419.22
2023-06-04T10:59:16.715Z,102451.34
2023-06-04T11:01:43.765Z,102461.16
2023-06-04T11:04:23.946Z,102421.03
2023-06-04T11:07:10.426Z,102436.28
2023-06-04T11:09:57.671Z,102438.31
2023-06-04T11:12:24.663Z,102422.38
2023-06-04T11:15:00.797Z,102451.44
2023-06-04T11:17:27.781Z,102408.25
2023-06-04T11:19:56.648Z,102417.13
2023-06-04T11:22:24.548Z,102401.75
2023-06-04T11:25:00.178Z,102441.56
2023-06-04T11:27:36.326Z,102412.72
2023-06-04T11:30:04.306Z,102431.78
2023-06-04T11:32:31.748Z,102400.22
2023-06-04T11:35:07.309Z,102412.06
2023-06-04T11:37:34.705Z,102409.06
2023-06-04T11:40:02.097Z,102400.00
2023-06-04T11:42:30.439Z,102416.53
2023-06-04T11:44:58.234Z,102417.06
2023-06-04T11:47:25.905Z,102410.13
2023-06-04T11:49:59.332Z,102417.97
2023-06-04T11:52:26.098Z,102418.06
2023-06-04T11:54:52.991Z,102406.16
2023-06-04T11:57:20.247Z,102421.25
2023-06-04T11:59:47.126Z,102400.84
2023-06-04T12:02:13.891Z,102408.75
2023-06-04T12:04:41.079Z,102405.72
2023-06-04T12:07:10.070Z,102392.78
2023-06-04T12:09:37.410Z,102420.97
2023-06-04T12:12:06.170Z,102417.56
2023-06-04T12:14:33.177Z,102412.34
2023-06-04T12:17:02.473Z,102414.38
2023-06-04T12:19:30.298Z,102404.41
2023-06-04T12:22:05.659Z,102403.88
2023-06-04T12:24:35.571Z,102395.63
2023-06-04T12:27:04.068Z,102358.19
2023-06-04T12:29:31.100Z,102380.16
2023-06-04T12:32:13.120Z,102408.34
2023-06-04T12:34:41.568Z,102378.38
2023-06-04T12:37:09.490Z,102389.69
2023-06-04T12:39:40.772Z,102404.69
2023-06-04T12:42:09.519Z,102399.81
2023-06-04T12:44:42.661Z,102407.38
2023-06-04T12:47:09.764Z,102392.19
2023-06-04T12:49:36.698Z,102391.53
2023-06-04T12:52:03.681Z,102392.41
2023-06-04T12:54:30.970Z,102378.44
2023-06-04T12:56:59.124Z,102390.91
2023-06-04T12:59:27.020Z,102395.81
2023-06-04T13:01:54.812Z,102393.13
2023-06-04T13:04:21.665Z,102376.09
2023-06-04T13:06:48.444Z,102406.59
2023-06-04T13:09:15.382Z,102403.56
2023-06-04T13:11:44.863Z,102389.88
2023-06-04T13:14:12.327Z,102380.09
2023-06-04T13:16:39.781Z,102401.69
2023-06-04T13:19:07.893Z,102409.28
2023-06-04T13:21:35.258Z,102390.56
2023-06-04T13:24:02.122Z,102394.31
2023-06-04T13:26:28.794Z,102394.72
2023-06-04T13:28:55.644Z,102403.47
2023-06-04T13:31:22.374Z,102398.69
2023-06-04T13:33:49.071Z,102405.59
2023-06-04T13:36:15.870Z,102343.94
2023-06-04T13:38:43.332Z,102397.66
2023-06-04T13:41:10.411Z,102407.81
2023-06-04T13:43:37.218Z,102400.06
2023-06-04T13:46:05.033Z,102395.50
2023-06-04T13:48:31.815Z,102381.00
2023-06-04T13:50:59.320Z,102389.59
2023-06-04T13:53:26.003Z,102398.72
2023-06-04T13:55:58.926Z,102370.50
2023-06-04T13:58:26.783Z,102405.09
2023-06-04T14:00:54.628Z,102399.22
2023-06-04T14:03:21.460Z,102391.75
2023-06-04T14:05:48.417Z,102385.97
2023-06-04T14:08:15.251Z,102379.94
2023-06-04T14:10:42.211Z,102378.59
2023-06-04T14:13:10.105Z,102401.53
2023-06-04T14:15:36.948Z,102393.75
2023-06-04T14:18:05.067Z,102388.06
2023-06-04T14:20:32.062Z,102375.06
2023-06-04T14:22:58.835Z,102397.69
2023-06-04T14:25:25.491Z,102385.78
2023-06-04T14:27:52.522Z,102371.50
2023-06-04T14:30:19.232Z,102378.25
2023-06-04T14:32:46.033Z,102391.75
2023-06-04T14:35:13.777Z,102386.38
2023-06-04T14:37:40.601Z,102374.25
2023-06-04T14:40:07.720Z,102379.94
2023-06-04T14:42:34.602Z,102393.00
2023-06-04T14:45:01.374Z,102383.06
2023-06-04T14:47:28.089Z,102382.69
2023-06-04T14:49:55.103Z,102383.84
2023-06-04T14:52:21.916Z,102391.00
2023-06-04T14:54:48.529Z,102393.69
2023-06-04T14:57:15.686Z,102376.91
2023-06-04T14:59:44.271Z,102379.19
2023-06-04T15:02:11.162Z,102396.09
2023-06-04T15:04:38.225Z,102392.72
2023-06-04T15:07:05.179Z,102398.56
2023-06-04T15:09:31.847Z,102401.56
2023-06-04T15:11:58.597Z,102385.66
2023-06-04T15:14:26.487Z,102392.34
2023-06-04T15:16:53.159Z,102386.81
2023-06-04T15:19:20.319Z,102369.28
2023-06-04T15:21:46.965Z,102377.50
2023-06-04T15:24:13.620Z,102399.78
2023-06-04T15:26:40.444Z,102375.13
2023-06-04T15:29:08.639Z,102392.50
2023-06-04T15:31:35.413Z,102360.91
2023-06-04T15:34:02.261Z,102382.88
2023-06-04T15:36:28.885Z,102391.28
2023-06-04T15:38:55.686Z,102398.94
2023-06-04T15:41:22.689Z,102397.00
2023-06-04T15:43:52.078Z,102373.25
2023-06-04T15:46:18.969Z,102386.59
2023-06-04T15:48:45.940Z,102391.72
2023-06-04T15:51:12.558Z,102389.75
2023-06-04T15:53:39.152Z,102395.81
2023-06-04T15:56:06.043Z,102393.66
2023-06-04T15:58:32.762Z,102399.59
2023-06-04T16:01:00.673Z,102384.75
2023-06-04T16:03:28.490Z,102359.97
2023-06-04T16:05:55.139Z,102410.75
2023-06-04T16:08:21.832Z,102378.28
2023-06-04T16:10:48.841Z,102400.28
2023-06-04T16:13:15.927Z,102338.28
2023-06-04T16:15:43.163Z,102395.25
2023-06-04T16:18:10.102Z,102398.06
2023-06-04T16:20:36.835Z,102400.91
2023-06-04T16:23:03.471Z,102385.41
2023-06-04T16:25:30.770Z,102367.69
2023-06-04T16:27:57.457Z,102382.94
2023-06-04T16:30:24.129Z,102387.19
2023-06-04T16:32:51.510Z,102378.31
2023-06-04T16:35:18.326Z,102386.06
2023-06-04T16:37:44.918Z,102384.97
2023-06-04T16:40:12.064Z,102381.97
2023-06-04T16:42:38.774Z,102327.94
2023-06-04T16:45:05.991Z,102390.28
2023-06-04T16:47:34.990Z,102372.47
2023-06-04T16:50:02.114Z,102355.16
2023-06-04T16:52:28.795Z,102373.53
2023-06-04T16:54:55.849Z,102371.13
2023-06-04T16:57:23.259Z,102390.63
2023-06-04T16:59:49.921Z,102380.03
2023-06-04T17:02:16.750Z,102362.16
2023-06-04T17:04:44.076Z,102385.84
2023-06-04T17:07:11.626Z,102378.25
2023-06-04T17:09:38.994Z,102381.59
2023-06-04T17:12:07.973Z,102377.94
2023-06-04T17:14:35.936Z,102383.59
2023-06-04T17:17:02.998Z,102310.38
2023-06-04T17:19:32.645Z,102371.72
2023-06-04T17:22:00.284Z,102363.41
2023-06-04T17:24:27.780Z,102321.22
2023-06-04T17:26:55.523Z,102377.94
2023-06-04T17:29:22.863Z,102374.69
2023-06-04T17:31:49.808Z,102326.28
2023-06-04T17:34:16.416Z,102355.06
2023-06-04T17:36:44.368Z,102371.13
2023-06-04T17:39:11.789Z,102374.78
2023-06-04T17:41:38.391Z,102374.63
2023-06-04T17:44:05.369Z,102386.53
2023-06-04T17:46:32.273Z,102374.97
2023-06-04T17:48:58.945Z,102381.00
2023-06-04T17:51:25.592Z,102382.81
2023-06-04T17:53:52.501Z,102366.41
2023-06-04T17:56:19.171Z,102390.69
2023-06-04T17:58:45.778Z,102384.88
2023-06-04T18:01:12.632Z,102360.16
2023-06-04T18:03:39.311Z,102382.72
2023-06-04T18:06:06.189Z,102390.84
2023-06-04T18:08:33.072Z,102379.78
2023-06-04T18:10:59.985Z,102392.44
2023-06-04T18:13:26.725Z,102360.75
2023-06-04T18:15:56.389Z,102340.03
2023-06-04T18:18:23.162Z,102394.47
2023-06-04T18:20:49.939Z,102377.25
2023-06-04T18:23:16.820Z,102378.75
2023-06-04T18:25:43.651Z,102396.72
2023-06-04T18:28:10.705Z,102391.47
2023-06-04T18:30:37.565Z,102383.00
2023-06-04T18:33:04.335Z,102384.94
2023-06-04T18:35:33.283Z,102372.84
2023-06-04T18:38:00.963Z,102399.53
2023-06-04T18:40:27.673Z,102378.19
2023-06-04T18:42:54.244Z,102381.63
2023-06-04T18:45:21.205Z,102371.09
2023-06-04T18:47:49.370Z,102390.03
2023-06-04T18:50:16.254Z,102374.41
2023-06-04T18:52:43.458Z,102379.13
2023-06-04T18:55:10.329Z,102391.16
2023-06-04T18:57:37.867Z,102396.00
2023-06-04T19:00:08.811Z,102395.06
2023-06-04T19:02:39.790Z,102394.56
2023-06-04T19:05:10.688Z,102401.38
2023-06-04T19:07:38.080Z,102376.53
2023-06-04T19:10:05.151Z,102380.53
2023-06-04T19:12:31.907Z,102385.72
2023-06-04T19:14:58.660Z,102371.78
2023-06-04T19:17:29.521Z,102392.66
2023-06-04T19:19:56.267Z,102372.53
2023-06-04T19:22:23.046Z,102387.53
2023-06-04T19:24:49.791Z,102402.09
2023-06-04T19:27:18.567Z,102406.59
2023-06-04T19:29:46.947Z,102376.13
2023-06-04T19:32:14.203Z,102404.50
2023-06-04T19:34:40.968Z,102367.59
2023-06-04T19:37:07.867Z,102389.94
2023-06-04T19:39:34.606Z,102394.03
2023-06-04T19:42:01.482Z,102396.84
2023-06-04T19:44:28.210Z,102394.03
2023-06-04T19:46:54.935Z,102416.09
2023-06-04T19:49:21.697Z,102397.66
2023-06-04T19:51:48.789Z,102363.91
2023-06-04T19:54:15.697Z,102415.13
2023-06-04T19:56:42.724Z,102426.63
2023-06-04T19:59:09.552Z,102420.06
2023-06-04T20:01:36.283Z,102414.59
2023-06-04T20:04:03.080Z,102425.47
2023-06-04T20:06:31.241Z,102426.53
2023-06-04T20:08:57.914Z,102374.69
2023-06-04T20:11:24.838Z,102419.38
2023-06-04T20:13:51.838Z,102417.50
2023-06-04T20:16:18.694Z,102410.44
2023-06-04T20:18:45.598Z,102433.34
2023-06-04T20:21:12.456Z,102408.78
2023-06-04T20:23:39.136Z,102413.66
2023-06-04T20:26:08.338Z,102415.56
2023-06-04T20:28:35.192Z,102409.75
2023-06-04T20:31:01.914Z,102435.47
2023-06-04T20:33:28.653Z,102443.69
2023-06-04T20:35:55.412Z,102439.78
2023-06-04T20:38:22.088Z,102415.09
2023-06-04T20:40:48.899Z,102418.81
2023-06-04T20:43:16.947Z,102418.31
2023-06-04T20:45:43.749Z,102447.31
2023-06-04T20:48:10.711Z,102431.63
2023-06-04T20:50:37.530Z,102423.00
2023-06-04T20:53:04.182Z,102418.97
2023-06-04T20:55:30.934Z,102439.38
2023-06-04T20:57:57.571Z,102390.06
2023-06-04T21:00:26.748Z,102434.50
2023-06-04T21:02:53.665Z,102451.31
2023-06-04T21:05:20.709Z,102434.31
2023-06-04T21:07:47.350Z,102440.94
2023-06-04T21:10:16.102Z,102423.28
2023-06-04T21:12:42.814Z,102442.00
2023-06-04T21:15:09.821Z,102452.22
2023-06-04T21:17:36.670Z,102449.06
2023-06-04T21:20:03.453Z,102450.97
2023-06-04T21:22:30.109Z,102433.94
2023-06-04T21:24:56.949Z,102457.34
2023-06-04T21:27:23.702Z,102451.94
2023-06-04T21:29:50.454Z,102467.13
2023-06-04T21:32:17.184Z,102458.09
2023-06-04T21:34:43.962Z,102457.34
2023-06-04T21:37:10.688Z,102450.72
2023-06-04T21:39:37.362Z,102454.38
2023-06-04T21:42:04.331Z,102404.97
2023-06-04T21:44:31.143Z,102459.25
2023-06-04T21:46:58.462Z,102453.53
2023-06-04T21:49:25.292Z,102451.72
2023-06-04T21:51:52.052Z,102464.03
2023-06-04T21:54:18.703Z,102463.28
2023-06-04T21:56:47.756Z,102420.19
2023-06-04T21:59:14.414Z,102456.78
2023-06-04T22:01:41.331Z,102453.72
2023-06-04T22:04:08.317Z,102432.97
2023-06-04T22:06:34.973Z,102463.28
2023-06-04T22:09:01.681Z,102444.78
2023-06-04T22:11:28.534Z,102469.03
2023-06-04T22:13:55.766Z,102436.72
2023-06-04T22:16:22.454Z,102468.00
2023-06-04T22:18:53.650Z,102457.13
2023-06-04T22:21:21.332Z,102465.00
2023-06-04T22:23:48.177Z,102446.06
2023-06-04T22:26:28.417Z,102470.09
2023-06-04T22:29:01.731Z,102437.97
2023-06-04T22:31:28.811Z,102445.22
2023-06-04T22:33:55.656Z,102453.81
2023-06-04T22:36:22.316Z,102452.00
2023-06-04T22:38:49.084Z,102443.28
2023-06-04T22:41:15.981Z,102415.00
2023-06-04T22:43:42.635Z,102452.44
2023-06-04T22:46:09.517Z,102426.81
2023-06-04T22:48:36.191Z,102442.03
2023-06-04T22:51:02.935Z,102444.88
2023-06-04T22:53:29.944Z,102460.31
2023-06-04T22:55:56.602Z,102431.38
2023-06-04T22:58:23.211Z,102438.81
2023-06-04T23:00:50.635Z,102446.91
2023-06-04T23:03:17.776Z,102460.31
2023-06-04T23:05:45.064Z,102455.97
2023-06-04T23:08:12.022Z,102460.13
2023-06-04T23:10:38.647Z,102452.66
2023-06-04T23:13:05.297Z,102457.97
2023-06-04T23:15:32.105Z,102441.19
2023-06-04T23:17:58.908Z,102450.75
2023-06-04T23:20:25.721Z,102438.44
2023-06-04T23:22:52.387Z,102447.78
2023-06-04T23:25:19.030Z,102448.06
2023-06-04T23:27:45.650Z,102428.19
2023-06-04T23:30:13.440Z,102455.75
2023-06-04T23:32:40.253Z,102455.63
2023-06-04T23:35:07.406Z,102456.47
2023-06-04T23:37:34.141Z,102468.63
2023-06-04T23:40:00.805Z,102466.38
2023-06-04T23:42:27.489Z,102467.34
2023-06-04T23:44:54.269Z,102458.78
2023-06-04T23:47:20.988Z,102464.13
2023-06-04T23:49:47.577Z,102460.94
2023-06-04T23:52:14.463Z,102459.44
2023-06-04T23:54:41.120Z,102449.19
2023-06-04T23:57:07.799Z,102451.31
2023-06-04T23:59:34.621Z,102469.09
